Time;durP1;ratioP1;P1;durP2;ratioP2;P2;SDS_P1;SDS_P2;PMS_P1;PMS_P2;Temp;Humidity;BMP_temperature;BMP_pressure;BME280_temperature;BME280_humidity;BME280_pressure;Samples;Min_cycle;Max_cycle;Signal;HPM_P1;HPM_P2
2022/04/24 00:00:03;;;;;;;12.93;8.67;;;9.90;99.90;;;;;;4978959;28;20053;-84
2022/04/24 00:02:29;;;;;;;10.30;7.23;;;9.80;99.90;;;;;;4999780;28;20589;-84
2022/04/24 00:04:55;;;;;;;10.97;8.17;;;9.80;99.90;;;;;;4984698;28;20092;-85
2022/04/24 00:07:20;;;;;;;11.03;8.40;;;9.80;99.90;;;;;;5011631;28;20092;-83
2022/04/24 00:09:46;;;;;;;11.73;7.93;;;9.70;99.90;;;;;;4979476;28;20045;-82
2022/04/24 00:12:18;;;;;;;12.03;8.20;;;9.70;99.90;;;;;;5006457;28;20480;-84
2022/04/24 00:14:45;;;;;;;11.98;8.43;;;9.70;99.90;;;;;;5011562;28;20037;-83
2022/04/24 00:17:12;;;;;;;15.23;7.67;;;9.70;99.90;;;;;;4995138;28;20052;-84
2022/04/24 00:19:38;;;;;;;11.93;8.10;;;9.60;99.90;;;;;;5007339;28;20457;-83
2022/04/24 00:22:04;;;;;;;10.47;8.27;;;9.60;99.90;;;;;;4983265;28;20497;-84
2022/04/24 00:24:32;;;;;;;10.20;8.17;;;9.60;99.90;;;;;;4994903;28;20049;-82
2022/04/24 00:26:58;;;;;;;12.30;8.00;;;9.60;99.90;;;;;;4963562;28;20103;-85
2022/04/24 00:29:24;;;;;;;11.60;8.33;;;9.50;99.90;;;;;;4978602;28;20045;-84
2022/04/24 00:31:49;;;;;;;10.43;7.83;;;9.50;99.90;;;;;;4949005;28;20042;-84
2022/04/24 00:34:15;;;;;;;11.20;8.07;;;9.50;99.90;;;;;;4977511;28;20046;-83
2022/04/24 00:36:41;;;;;;;11.77;8.33;;;9.50;99.90;;;;;;5002866;28;20370;-82
2022/04/24 00:39:07;;;;;;;10.03;7.57;;;9.40;99.90;;;;;;5028352;28;20045;-82
2022/04/24 00:41:33;;;;;;;12.80;7.90;;;9.40;99.90;;;;;;4983327;28;20073;-83
2022/04/24 00:43:58;;;;;;;10.13;7.80;;;9.30;99.90;;;;;;5015018;28;20444;-82
2022/04/24 00:46:50;;;;;;;11.73;8.57;;;9.30;99.90;;;;;;5007214;28;20408;-83
2022/04/24 00:49:16;;;;;;;10.30;7.88;;;9.20;99.90;;;;;;4997499;28;20481;-82
2022/04/24 00:51:43;;;;;;;10.07;8.37;;;9.20;99.90;;;;;;4982257;28;20048;-84
2022/04/24 00:54:11;;;;;;;13.37;9.00;;;9.20;99.90;;;;;;5000982;28;20111;-83
2022/04/24 00:56:39;;;;;;;11.90;7.93;;;9.20;99.90;;;;;;4997878;28;20046;-83
2022/04/24 00:59:07;;;;;;;10.53;7.93;;;9.10;99.90;;;;;;5014883;28;20046;-83
2022/04/24 01:01:34;;;;;;;8.53;7.40;;;9.10;99.90;;;;;;5020065;28;20069;-84
2022/04/24 01:04:02;;;;;;;11.43;8.10;;;9.10;99.90;;;;;;5034947;28;20037;-82
2022/04/24 01:06:42;;;;;;;11.90;8.83;;;9.10;99.90;;;;;;5034993;28;20563;-83
2022/04/24 01:09:19;;;;;;;10.73;8.13;;;9.10;99.90;;;;;;4991962;28;20037;-82
2022/04/24 01:11:50;;;;;;;11.63;8.00;;;9.10;99.90;;;;;;4988400;28;20065;-82
2022/04/24 01:14:17;;;;;;;11.70;8.13;;;9.00;99.90;;;;;;4997865;28;20041;-83
2022/04/24 01:16:45;;;;;;;13.10;8.53;;;9.00;99.90;;;;;;5018642;28;20041;-81
2022/04/24 01:19:12;;;;;;;11.33;8.07;;;9.00;99.90;;;;;;4979275;28;20034;-82
2022/04/24 01:21:39;;;;;;;10.50;8.27;;;9.00;99.90;;;;;;5034273;28;20077;-83
2022/04/24 01:24:06;;;;;;;12.87;8.83;;;9.00;99.90;;;;;;5017076;28;20045;-81
2022/04/24 01:26:33;;;;;;;13.80;9.13;;;9.00;99.90;;;;;;5013884;28;20045;-82
2022/04/24 01:28:59;;;;;;;11.63;7.63;;;8.90;99.90;;;;;;4992376;28;20397;-84
2022/04/24 01:31:24;;;;;;;12.80;8.33;;;8.90;99.90;;;;;;5008636;28;20041;-83
2022/04/24 01:33:50;;;;;;;13.90;8.53;;;8.90;99.90;;;;;;4989081;28;20120;-81
2022/04/24 01:36:16;;;;;;;9.83;8.23;;;8.90;99.90;;;;;;4997119;28;20509;-83
2022/04/24 01:38:42;;;;;;;11.53;7.97;;;8.80;99.90;;;;;;4981721;28;20125;-85
2022/04/24 01:41:09;;;;;;;12.83;8.00;;;8.80;99.90;;;;;;4997782;28;20050;-83
2022/04/24 01:43:36;;;;;;;11.93;8.77;;;8.70;99.90;;;;;;5000091;28;20433;-83
2022/04/24 01:46:11;;;;;;;9.50;7.93;;;8.60;99.90;;;;;;4974709;28;20068;-82
2022/04/24 01:48:37;;;;;;;11.50;8.90;;;8.50;99.90;;;;;;4975576;28;20125;-82
2022/04/24 01:51:07;;;;;;;16.20;9.47;;;8.60;99.90;;;;;;4944235;28;20085;-82
2022/04/24 01:53:34;;;;;;;11.67;8.23;;;8.50;99.90;;;;;;4974920;28;20486;-81
2022/04/24 01:56:02;;;;;;;11.37;8.10;;;8.50;99.90;;;;;;4976468;28;20074;-80
2022/04/24 01:58:28;;;;;;;10.80;7.63;;;8.50;99.90;;;;;;5004207;28;20043;-82
2022/04/24 02:00:54;;;;;;;15.23;8.80;;;8.50;99.90;;;;;;5007659;28;20047;-83
2022/04/24 02:03:21;;;;;;;12.00;8.50;;;8.40;99.90;;;;;;4961602;28;20050;-82
2022/04/24 02:05:47;;;;;;;11.10;8.40;;;8.30;99.90;;;;;;4970647;28;20113;-82
2022/04/24 02:08:14;;;;;;;12.10;8.57;;;8.20;99.90;;;;;;4961597;28;20122;-83
2022/04/24 02:10:40;;;;;;;11.27;7.87;;;8.30;99.90;;;;;;4974450;28;20054;-82
2022/04/24 02:13:05;;;;;;;10.93;8.40;;;8.20;99.90;;;;;;4987539;28;20073;-82
2022/04/24 02:15:31;;;;;;;12.47;8.63;;;8.20;99.90;;;;;;4980919;28;20070;-81
2022/04/24 02:17:57;;;;;;;11.37;8.67;;;8.20;99.90;;;;;;4973006;28;20065;-82
2022/04/24 02:20:24;;;;;;;12.70;8.50;;;8.10;99.90;;;;;;4959983;28;20045;-81
2022/04/24 02:22:50;;;;;;;13.13;8.60;;;8.20;99.90;;;;;;4993005;28;20517;-81
2022/04/24 02:25:17;;;;;;;11.40;7.93;;;8.10;99.90;;;;;;4979813;28;20046;-81
2022/04/24 02:27:44;;;;;;;10.53;8.70;;;8.00;99.90;;;;;;4986904;28;20039;-82
2022/04/24 02:30:10;;;;;;;13.87;8.33;;;7.90;99.90;;;;;;4970180;28;20051;-81
2022/04/24 02:32:36;;;;;;;11.27;8.53;;;7.90;99.90;;;;;;4958542;28;20058;-82
2022/04/24 02:35:02;;;;;;;12.53;9.23;;;7.90;99.90;;;;;;4974637;28;20039;-82
2022/04/24 02:37:28;;;;;;;12.10;8.37;;;7.90;99.90;;;;;;4980559;28;20135;-81
2022/04/24 02:39:53;;;;;;;13.83;8.47;;;7.80;99.90;;;;;;4963761;28;20539;-83
2022/04/24 02:42:19;;;;;;;12.50;8.67;;;7.80;99.90;;;;;;4968595;28;20042;-82
2022/04/24 02:44:45;;;;;;;12.97;9.10;;;7.80;99.90;;;;;;4962005;28;20031;-83
2022/04/24 02:47:11;;;;;;;13.23;8.80;;;7.80;99.90;;;;;;4971318;28;20058;-82
2022/04/24 02:49:37;;;;;;;12.33;8.70;;;7.70;99.90;;;;;;4981730;28;20125;-85
2022/04/24 02:52:03;;;;;;;12.23;8.50;;;7.70;99.90;;;;;;4964219;28;20065;-81
2022/04/24 02:54:29;;;;;;;12.20;9.23;;;7.70;99.90;;;;;;4961035;28;20041;-83
2022/04/24 02:56:55;;;;;;;11.97;8.73;;;7.60;99.90;;;;;;4977258;28;20429;-82
2022/04/24 02:59:20;;;;;;;11.27;8.67;;;7.60;99.90;;;;;;4976468;28;20663;-82
2022/04/24 03:01:46;;;;;;;10.33;8.40;;;7.60;99.90;;;;;;4976557;28;20045;-81
2022/04/24 03:04:13;;;;;;;12.73;9.30;;;7.60;99.90;;;;;;4964400;28;20042;-81
2022/04/24 03:06:38;;;;;;;12.67;9.37;;;7.50;99.90;;;;;;4991233;28;20081;-82
2022/04/24 03:09:05;;;;;;;12.20;9.07;;;7.50;99.90;;;;;;4990413;28;20061;-84
2022/04/24 03:11:31;;;;;;;13.30;8.73;;;7.50;99.90;;;;;;4977102;28;20039;-83
2022/04/24 03:13:57;;;;;;;12.17;8.47;;;7.50;99.90;;;;;;4974667;28;20042;-81
2022/04/24 03:16:22;;;;;;;12.87;9.10;;;7.50;99.90;;;;;;4980403;28;20056;-83
2022/04/24 03:18:48;;;;;;;13.93;9.23;;;7.50;99.90;;;;;;4981541;28;20053;-82
2022/04/24 03:21:14;;;;;;;10.53;8.67;;;7.50;99.90;;;;;;4980178;28;20042;-82
2022/04/24 03:23:40;;;;;;;12.97;9.60;;;7.50;99.90;;;;;;4976862;28;20034;-82
2022/04/24 03:26:06;;;;;;;12.63;9.37;;;7.50;99.90;;;;;;4980640;28;20037;-83
2022/04/24 03:28:32;;;;;;;12.90;8.37;;;7.40;99.90;;;;;;4986729;28;20038;-83
2022/04/24 03:30:58;;;;;;;14.37;8.87;;;7.30;99.90;;;;;;4973120;28;20042;-82
2022/04/24 03:33:24;;;;;;;11.53;9.07;;;7.40;99.90;;;;;;4979714;28;20038;-81
2022/04/24 03:35:49;;;;;;;12.87;8.40;;;7.40;99.90;;;;;;4981158;28;20134;-82
2022/04/24 03:38:15;;;;;;;12.73;8.87;;;7.30;99.90;;;;;;4974340;28;20050;-81
2022/04/24 03:40:41;;;;;;;12.87;8.97;;;7.30;99.90;;;;;;4973672;28;20477;-83
2022/04/24 03:43:06;;;;;;;13.77;9.17;;;7.30;99.90;;;;;;4970508;28;20043;-84
2022/04/24 03:45:32;;;;;;;11.70;9.07;;;7.30;99.90;;;;;;4969647;28;20494;-81
2022/04/24 03:47:58;;;;;;;12.83;9.80;;;7.20;99.90;;;;;;4972669;28;20053;-83
2022/04/24 03:50:23;;;;;;;12.87;8.67;;;7.20;99.90;;;;;;4972535;28;20045;-83
2022/04/24 03:52:49;;;;;;;13.37;8.53;;;7.20;99.90;;;;;;4973185;28;20408;-83
2022/04/24 03:55:15;;;;;;;11.40;8.77;;;7.20;99.90;;;;;;4986144;28;20046;-82
2022/04/24 03:57:41;;;;;;;13.77;8.73;;;7.20;99.90;;;;;;5013637;28;20104;-81
2022/04/24 04:00:07;;;;;;;13.50;9.67;;;7.20;99.90;;;;;;4986952;28;20057;-83
2022/04/24 04:02:45;;;;;;;13.30;8.70;;;7.20;99.90;;;;;;4982731;28;20035;-81
2022/04/24 04:05:11;;;;;;;13.30;8.83;;;7.20;99.90;;;;;;4996379;28;20042;-82
2022/04/24 04:07:37;;;;;;;12.30;8.23;;;7.20;99.90;;;;;;4991729;28;20038;-84
2022/04/24 04:10:03;;;;;;;13.57;8.93;;;7.10;99.90;;;;;;4971339;28;20061;-81
2022/04/24 04:12:29;;;;;;;12.20;8.67;;;7.10;99.90;;;;;;4966748;28;20128;-83
2022/04/24 04:14:55;;;;;;;13.43;8.80;;;7.10;99.90;;;;;;4957609;28;20098;-81
2022/04/24 04:17:20;;;;;;;11.80;9.03;;;7.10;99.90;;;;;;4976031;28;20486;-82
2022/04/24 04:19:46;;;;;;;11.87;8.27;;;7.10;99.90;;;;;;4962892;28;20042;-84
2022/04/24 04:22:12;;;;;;;11.27;8.47;;;7.10;99.90;;;;;;4967167;28;20486;-82
2022/04/24 04:24:37;;;;;;;15.97;9.43;;;7.10;99.90;;;;;;4980990;28;20040;-81
2022/04/24 04:27:03;;;;;;;13.47;8.57;;;7.00;99.90;;;;;;4970840;28;20066;-82
2022/04/24 04:29:29;;;;;;;13.63;8.60;;;7.10;99.90;;;;;;4979362;28;20045;-80
2022/04/24 04:31:55;;;;;;;14.83;8.57;;;7.20;99.90;;;;;;4979398;28;20042;-83
2022/04/24 04:34:21;;;;;;;13.30;8.27;;;7.10;99.90;;;;;;4994411;28;20596;-82
2022/04/24 04:36:47;;;;;;;12.20;8.33;;;7.10;99.90;;;;;;4978406;28;20699;-83
2022/04/24 04:39:13;;;;;;;11.87;8.80;;;7.10;99.90;;;;;;4964891;28;20042;-81
2022/04/24 04:41:40;;;;;;;13.93;8.70;;;7.10;99.90;;;;;;4982052;28;20057;-81
2022/04/24 04:44:06;;;;;;;11.77;8.37;;;7.20;99.90;;;;;;4964527;28;20042;-82
2022/04/24 04:46:31;;;;;;;12.23;8.17;;;7.20;99.90;;;;;;4971765;28;20051;-81
2022/04/24 04:48:57;;;;;;;14.37;8.90;;;7.20;99.90;;;;;;4949879;28;20067;-81
2022/04/24 04:51:23;;;;;;;13.97;8.40;;;7.30;99.90;;;;;;4977983;28;20046;-81
2022/04/24 04:53:51;;;;;;;13.17;8.13;;;7.30;99.90;;;;;;4977819;28;20397;-82
2022/04/24 04:56:17;;;;;;;11.37;8.33;;;7.30;99.90;;;;;;4956844;28;20050;-81
2022/04/24 04:58:43;;;;;;;13.50;8.30;;;7.40;99.90;;;;;;4962422;28;20042;-81
2022/04/24 05:01:09;;;;;;;12.13;8.37;;;7.40;99.90;;;;;;4977952;28;20093;-82
2022/04/24 05:03:34;;;;;;;11.70;8.53;;;7.40;99.90;;;;;;4958268;28;20379;-83
2022/04/24 05:06:00;;;;;;;13.50;8.23;;;7.40;99.90;;;;;;4962554;28;20046;-81
2022/04/24 05:08:26;;;;;;;10.77;8.03;;;7.40;99.90;;;;;;4984983;28;20038;-80
2022/04/24 05:10:52;;;;;;;15.63;8.50;;;7.40;99.90;;;;;;4979125;28;20055;-82
2022/04/24 05:13:18;;;;;;;11.73;8.07;;;7.40;99.90;;;;;;4967913;28;20050;-82
2022/04/24 05:15:44;;;;;;;11.80;7.60;;;7.40;99.90;;;;;;4960369;28;20078;-84
2022/04/24 05:18:09;;;;;;;14.63;8.70;;;7.40;99.90;;;;;;4968597;28;20197;-83
2022/04/24 05:20:36;;;;;;;13.63;8.10;;;7.40;99.90;;;;;;4979460;28;20045;-83
2022/04/24 05:23:06;;;;;;;12.03;8.13;;;7.50;99.90;;;;;;4963713;28;20111;-86
2022/04/24 05:25:33;;;;;;;11.53;8.13;;;7.40;99.90;;;;;;4975716;28;20394;-82
2022/04/24 05:28:00;;;;;;;12.47;7.87;;;7.50;99.90;;;;;;4974911;28;20031;-82
2022/04/24 05:30:27;;;;;;;12.27;8.80;;;7.50;99.90;;;;;;4988853;28;20123;-82
2022/04/24 05:32:53;;;;;;;13.90;8.30;;;7.50;99.90;;;;;;4982496;28;20133;-85
2022/04/24 05:35:19;;;;;;;11.60;8.73;;;7.50;99.90;;;;;;4978295;28;20079;-83
2022/04/24 05:37:48;;;;;;;12.93;8.20;;;7.50;99.90;;;;;;4959609;28;20509;-81
2022/04/24 05:40:14;;;;;;;12.03;8.43;;;7.50;99.90;;;;;;4978497;28;20182;-81
2022/04/24 05:42:53;;;;;;;13.30;8.57;;;7.60;99.90;;;;;;4959672;28;20038;-86
2022/04/24 05:45:22;;;;;;;16.03;9.10;;;7.60;99.90;;;;;;4953635;28;20035;-85
2022/04/24 05:47:51;;;;;;;14.40;9.60;;;7.60;99.90;;;;;;4978836;28;20130;-82
2022/04/24 05:50:17;;;;;;;13.83;8.90;;;7.70;99.90;;;;;;4974988;28;20153;-81
2022/04/24 05:52:43;;;;;;;13.30;8.40;;;7.70;99.90;;;;;;4959065;28;20053;-81
2022/04/24 05:55:09;;;;;;;14.70;8.80;;;7.80;99.90;;;;;;4959004;28;20043;-82
2022/04/24 05:57:36;;;;;;;14.33;8.60;;;7.80;99.90;;;;;;4975373;28;20446;-83
2022/04/24 06:00:07;;;;;;;13.73;9.10;;;7.90;99.90;;;;;;4973746;28;20043;-79
2022/04/24 06:02:33;;;;;;;14.40;9.77;;;8.00;99.90;;;;;;4957151;28;20554;-85
2022/04/24 06:04:59;;;;;;;14.30;9.07;;;8.00;99.90;;;;;;4974055;28;20474;-82
2022/04/24 06:07:24;;;;;;;14.33;9.00;;;8.00;99.90;;;;;;4973535;28;20102;-81
2022/04/24 06:09:50;;;;;;;13.90;8.83;;;8.10;99.90;;;;;;4965931;28;20039;-82
2022/04/24 06:12:16;;;;;;;16.10;10.07;;;8.10;99.90;;;;;;4957318;28;20039;-80
2022/04/24 06:14:42;;;;;;;16.53;9.00;;;8.20;99.90;;;;;;4955809;28;20035;-81
2022/04/24 06:17:08;;;;;;;14.20;9.20;;;8.20;99.90;;;;;;4957560;28;20101;-81
2022/04/24 06:19:33;;;;;;;14.30;8.80;;;8.20;99.90;;;;;;4971492;28;20035;-83
2022/04/24 06:22:00;;;;;;;14.63;9.27;;;8.30;99.90;;;;;;4956437;28;20046;-81
2022/04/24 06:24:26;;;;;;;14.77;8.60;;;8.30;99.90;;;;;;4974324;28;20034;-79
2022/04/24 06:26:52;;;;;;;13.40;8.33;;;8.40;99.90;;;;;;4957876;28;20046;-82
2022/04/24 06:29:17;;;;;;;11.43;7.87;;;8.40;99.90;;;;;;4973206;28;20043;-81
2022/04/24 06:31:43;;;;;;;13.47;8.43;;;8.50;99.90;;;;;;4973083;28;20497;-82
2022/04/24 06:34:10;;;;;;;13.70;8.33;;;8.60;99.90;;;;;;4972481;28;20120;-80
2022/04/24 06:36:36;;;;;;;12.40;8.00;;;8.70;99.90;;;;;;4956910;28;20035;-83
2022/04/24 06:39:02;;;;;;;13.87;8.30;;;8.80;99.90;;;;;;4940678;28;20398;-79
2022/04/24 06:41:28;;;;;;;11.10;7.43;;;8.80;99.90;;;;;;4972591;28;20082;-79
2022/04/24 06:43:54;;;;;;;11.07;8.10;;;8.80;99.90;;;;;;4989292;28;20431;-81
2022/04/24 06:46:20;;;;;;;14.13;8.63;;;8.90;99.90;;;;;;4969690;28;20042;-79
2022/04/24 06:48:45;;;;;;;11.70;7.80;;;9.00;99.90;;;;;;4992993;28;20052;-82
2022/04/24 06:51:11;;;;;;;13.30;8.03;;;9.10;99.90;;;;;;4999751;28;20049;-83
2022/04/24 06:53:38;;;;;;;11.93;7.37;;;9.10;99.90;;;;;;5028916;28;20045;-81
2022/04/24 06:56:04;;;;;;;11.77;6.90;;;9.20;99.90;;;;;;4994612;28;20046;-80
2022/04/24 06:58:30;;;;;;;10.43;7.07;;;9.30;99.90;;;;;;5004862;28;20404;-83
2022/04/24 07:00:56;;;;;;;10.37;6.80;;;9.30;99.90;;;;;;5015432;28;20043;-80
2022/04/24 07:03:23;;;;;;;8.47;6.13;;;9.40;99.90;;;;;;5032343;28;20559;-82
2022/04/24 07:05:54;;;;;;;9.47;6.33;;;9.50;99.90;;;;;;5029063;28;20545;-79
2022/04/24 07:08:21;;;;;;;10.03;6.30;;;9.50;99.90;;;;;;4996476;28;20539;-82
2022/04/24 07:10:47;;;;;;;10.53;6.27;;;9.60;99.90;;;;;;4983129;28;20056;-82
2022/04/24 07:13:13;;;;;;;11.83;5.80;;;9.70;99.90;;;;;;5004267;28;20397;-82
2022/04/24 07:15:39;;;;;;;10.10;5.53;;;9.70;99.90;;;;;;4995541;28;20551;-82
2022/04/24 07:18:07;;;;;;;7.60;5.40;;;9.90;99.90;;;;;;5011000;28;20048;-81
2022/04/24 07:20:33;;;;;;;8.97;5.33;;;9.90;99.90;;;;;;5000549;28;20037;-84
2022/04/24 07:23:01;;;;;;;6.97;5.23;;;10.10;99.90;;;;;;5012391;28;20038;-81
2022/04/24 07:25:31;;;;;;;9.40;5.27;;;10.10;99.90;;;;;;5008377;28;20045;-81
2022/04/24 07:27:57;;;;;;;6.20;4.73;;;10.10;99.90;;;;;;5013122;28;20503;-84
2022/04/24 07:30:24;;;;;;;9.47;5.13;;;10.10;99.90;;;;;;4979594;28;20099;-82
2022/04/24 07:32:52;;;;;;;8.83;5.13;;;10.20;99.90;;;;;;4997674;28;20046;-83
2022/04/24 07:35:23;;;;;;;7.43;4.93;;;10.30;99.90;;;;;;4998164;28;20053;-84
2022/04/24 07:37:49;;;;;;;9.75;5.35;;;10.30;99.90;;;;;;5013181;28;20472;-81
2022/04/24 07:40:23;;;;;;;7.03;4.93;;;10.50;99.90;;;;;;5028751;28;20591;-80
2022/04/24 07:42:58;;;;;;;8.00;5.20;;;10.50;99.90;;;;;;5031607;28;20042;-82
2022/04/24 07:45:38;;;;;;;8.23;4.77;;;10.50;99.90;;;;;;5024418;28;20429;-81
2022/04/24 07:48:06;;;;;;;8.87;4.90;;;10.60;99.90;;;;;;5012321;28;20054;-83
2022/04/24 07:50:37;;;;;;;8.80;4.37;;;10.70;99.90;;;;;;4995508;28;20056;-84
2022/04/24 07:53:04;;;;;;;8.35;4.47;;;10.80;99.90;;;;;;5028281;28;20042;-81
2022/04/24 07:55:30;;;;;;;6.97;4.10;;;11.00;99.90;;;;;;5011824;28;20037;-81
2022/04/24 07:57:59;;;;;;;4.23;3.73;;;11.20;99.90;;;;;;5011424;28;20064;-82
2022/04/24 08:00:30;;;;;;;5.10;4.07;;;11.40;99.90;;;;;;4997310;28;20048;-82
2022/04/24 08:03:01;;;;;;;7.45;3.58;;;11.60;99.90;;;;;;4976161;28;20038;-79
2022/04/24 08:05:36;;;;;;;6.57;3.55;;;11.80;99.90;;;;;;5014522;28;20108;-82
2022/04/24 08:08:04;;;;;;;5.10;3.13;;;12.00;99.90;;;;;;4992326;28;20115;-81
2022/04/24 08:10:33;;;;;;;5.83;3.33;;;12.20;99.90;;;;;;5002755;28;20037;-85
2022/04/24 08:12:59;;;;;;;9.33;3.20;;;12.30;99.90;;;;;;5031915;28;20052;-83
2022/04/24 08:15:25;;;;;;;6.83;3.17;;;12.50;99.90;;;;;;5014919;28;20037;-83
2022/04/24 08:17:51;;;;;;;4.90;3.40;;;12.60;99.90;;;;;;5015245;28;20511;-81
2022/04/24 08:20:17;;;;;;;7.63;3.67;;;12.70;99.90;;;;;;5017145;28;20045;-82
2022/04/24 08:22:48;;;;;;;4.43;2.93;;;12.70;99.90;;;;;;4983565;28;20040;-81
2022/04/24 08:25:17;;;;;;;4.10;3.03;;;12.90;99.90;;;;;;4999515;28;20046;-81
2022/04/24 08:27:43;;;;;;;6.33;3.20;;;13.00;99.90;;;;;;5002169;28;20065;-82
2022/04/24 08:30:11;;;;;;;7.73;3.07;;;13.20;99.90;;;;;;5031112;28;20042;-81
2022/04/24 08:32:38;;;;;;;7.90;3.23;;;13.30;99.90;;;;;;5031224;28;20088;-81
2022/04/24 08:35:05;;;;;;;5.73;2.90;;;13.40;99.90;;;;;;5026598;28;20049;-82
2022/04/24 08:37:31;;;;;;;9.67;3.50;;;13.50;99.90;;;;;;5011142;28;20049;-83
2022/04/24 08:39:57;;;;;;;4.47;2.97;;;13.60;99.90;;;;;;5014584;28;20037;-84
2022/04/24 08:42:23;;;;;;;4.60;2.93;;;13.70;99.90;;;;;;4995006;28;20076;-84
2022/04/24 08:44:49;;;;;;;5.03;3.13;;;13.90;99.90;;;;;;4995935;28;20073;-82
2022/04/24 08:47:16;;;;;;;4.03;3.07;;;14.00;99.30;;;;;;4995144;28;20054;-84
2022/04/24 08:49:42;;;;;;;4.47;3.23;;;13.90;98.40;;;;;;4971887;28;20040;-81
2022/04/24 08:52:10;;;;;;;4.50;3.40;;;14.00;97.60;;;;;;5030800;28;20072;-82
2022/04/24 08:54:37;;;;;;;4.57;3.63;;;14.10;99.10;;;;;;5028173;28;20080;-81
2022/04/24 08:57:04;;;;;;;4.30;3.37;;;14.10;91.80;;;;;;5016876;28;20053;-82
2022/04/24 08:59:29;;;;;;;4.83;3.50;;;14.20;97.20;;;;;;4996332;28;20080;-82
2022/04/24 09:01:58;;;;;;;6.93;3.37;;;14.10;93.90;;;;;;4981256;28;20073;-84
2022/04/24 09:04:30;;;;;;;4.73;3.20;;;14.10;85.70;;;;;;4997730;28;20125;-85
2022/04/24 09:07:00;;;;;;;5.38;3.20;;;14.20;91.60;;;;;;5011540;28;20040;-81
2022/04/24 09:09:26;;;;;;;4.73;3.30;;;14.20;92.70;;;;;;5025065;28;20041;-81
2022/04/24 09:11:52;;;;;;;6.63;4.00;;;14.30;96.40;;;;;;4999033;28;20053;-83
2022/04/24 09:14:19;;;;;;;5.07;3.37;;;14.30;91.70;;;;;;4998698;28;20053;-80
2022/04/24 09:16:49;;;;;;;6.67;3.50;;;14.20;92.30;;;;;;4985541;28;20089;-85
2022/04/24 09:19:23;;;;;;;6.00;3.60;;;14.40;89.10;;;;;;4997451;28;21247;-81
2022/04/24 09:22:00;;;;;;;4.83;3.20;;;14.60;91.20;;;;;;5001368;28;20038;-81
2022/04/24 09:24:46;;;;;;;5.60;3.47;;;14.60;84.80;;;;;;4984072;28;20118;-82
2022/04/24 09:27:32;;;;;;;5.80;3.70;;;14.90;92.70;;;;;;5000577;28;20074;-83
2022/04/24 09:30:03;;;;;;;5.43;3.60;;;14.90;87.80;;;;;;4998805;28;20037;-80
2022/04/24 09:32:48;;;;;;;6.43;3.47;;;15.00;90.60;;;;;;4991523;28;20484;-78
2022/04/24 09:35:30;;;;;;;5.37;3.50;;;14.90;82.50;;;;;;4981683;28;20140;-78
2022/04/24 09:38:06;;;;;;;5.50;4.07;;;14.70;81.10;;;;;;4993905;28;20056;-78
2022/04/24 09:40:45;;;;;;;4.83;3.73;;;14.70;84.90;;;;;;4992416;28;20121;-77
2022/04/24 09:43:12;;;;;;;6.87;3.57;;;14.80;83.50;;;;;;4990892;28;20053;-77
2022/04/24 09:45:45;;;;;;;5.20;3.63;;;15.00;84.00;;;;;;4991208;28;20069;-77
2022/04/24 09:48:12;;;;;;;7.13;3.40;;;15.20;78.40;;;;;;4973894;28;20086;-77
2022/04/24 09:50:39;;;;;;;6.50;3.43;;;15.30;79.40;;;;;;4944787;28;20506;-78
2022/04/24 09:53:05;;;;;;;6.80;4.10;;;15.30;75.50;;;;;;4967019;28;20121;-77
2022/04/24 09:55:31;;;;;;;4.43;3.60;;;15.30;78.90;;;;;;4965438;28;20117;-77
2022/04/24 09:57:57;;;;;;;6.20;3.87;;;15.20;77.00;;;;;;4951618;28;20169;-79
2022/04/24 10:00:23;;;;;;;4.73;3.80;;;15.10;77.30;;;;;;4967533;28;20047;-77
2022/04/24 10:02:52;;;;;;;7.43;3.73;;;15.00;78.00;;;;;;4966706;28;20046;-77
2022/04/24 10:05:18;;;;;;;5.43;3.83;;;15.10;78.90;;;;;;4966701;28;20128;-78
2022/04/24 10:07:46;;;;;;;5.67;3.87;;;15.20;82.20;;;;;;4951556;28;20511;-78
2022/04/24 10:10:13;;;;;;;5.70;3.60;;;15.20;74.90;;;;;;4961297;28;20047;-77
2022/04/24 10:12:43;;;;;;;5.57;3.27;;;15.20;76.10;;;;;;4944987;28;20047;-77
2022/04/24 10:15:13;;;;;;;9.93;4.03;;;15.30;74.30;;;;;;4966760;28;20046;-78
2022/04/24 10:18:05;;;;;;;5.80;3.43;;;15.20;70.60;;;;;;4944974;28;20043;-78
2022/04/24 10:20:37;;;;;;;4.50;3.20;;;15.20;71.30;;;;;;4979896;28;20047;-78
2022/04/24 10:23:03;;;;;;;4.57;2.78;;;15.20;72.40;;;;;;4966775;28;20125;-78
2022/04/24 10:25:37;;;;;;;4.43;3.10;;;15.40;71.40;;;;;;4954609;28;20142;-78
2022/04/24 10:28:14;;;;;;;8.00;3.20;;;15.60;69.10;;;;;;4966331;28;20100;-78
2022/04/24 10:30:40;;;;;;;5.50;3.47;;;15.60;67.10;;;;;;4970625;28;20050;-78
2022/04/24 10:33:18;;;;;;;4.87;3.23;;;15.50;68.10;;;;;;4953510;28;20105;-78
2022/04/24 10:35:52;;;;;;;6.90;3.60;;;15.70;68.50;;;;;;4970811;28;20074;-79
2022/04/24 10:38:18;;;;;;;4.83;3.70;;;15.70;68.70;;;;;;4970621;28;20066;-79
2022/04/24 10:41:06;;;;;;;6.53;3.27;;;15.60;67.90;;;;;;4954663;28;20043;-78
2022/04/24 10:43:39;;;;;;;4.93;2.83;;;15.30;65.40;;;;;;4971009;28;20042;-78
2022/04/24 10:46:42;;;;;;;6.33;3.40;;;15.20;67.40;;;;;;4970769;28;20038;-78
2022/04/24 10:49:12;;;;;;;4.43;3.30;;;15.20;66.00;;;;;;4969562;28;20105;-79
2022/04/24 10:51:43;;;;;;;4.70;3.17;;;15.10;64.70;;;;;;4987018;28;20121;-78
2022/04/24 10:54:16;;;;;;;4.47;3.50;;;15.00;64.40;;;;;;4956235;28;20125;-78
2022/04/24 10:56:51;;;;;;;5.43;3.80;;;14.90;67.10;;;;;;4980382;28;20604;-78
2022/04/24 10:59:19;;;;;;;6.30;4.00;;;15.10;68.30;;;;;;4998199;28;20090;-79
2022/04/24 11:01:50;;;;;;;6.97;3.13;;;15.10;67.60;;;;;;4982034;28;20129;-78
2022/04/24 11:04:16;;;;;;;4.73;3.27;;;15.00;67.70;;;;;;4994990;28;20576;-78
2022/04/24 11:06:56;;;;;;;3.53;3.23;;;14.70;67.80;;;;;;4974805;28;20550;-78
2022/04/24 11:09:23;;;;;;;6.13;3.63;;;14.50;68.90;;;;;;4973982;28;20070;-78
2022/04/24 11:11:51;;;;;;;4.50;3.53;;;14.50;69.70;;;;;;4976693;28;20117;-78
2022/04/24 11:14:26;;;;;;;5.83;3.10;;;14.90;69.00;;;;;;5000269;28;20038;-77
2022/04/24 11:16:54;;;;;;;5.37;2.90;;;14.90;66.10;;;;;;4962749;28;20050;-79
2022/04/24 11:19:22;;;;;;;7.27;3.13;;;15.20;67.50;;;;;;4963762;28;20077;-78
2022/04/24 11:21:53;;;;;;;4.17;3.00;;;15.50;66.20;;;;;;4980451;28;20048;-78
2022/04/24 11:24:18;;;;;;;4.53;2.67;;;15.60;65.90;;;;;;4971782;28;20039;-78
2022/04/24 11:26:48;;;;;;;4.40;2.67;;;15.50;63.00;;;;;;4960701;28;20494;-78
2022/04/24 11:29:14;;;;;;;3.97;3.00;;;15.50;62.50;;;;;;4998319;28;20117;-79
2022/04/24 11:31:48;;;;;;;3.10;2.70;;;15.70;63.70;;;;;;4976542;28;20122;-77
2022/04/24 11:34:18;;;;;;;5.87;3.10;;;16.00;62.60;;;;;;4977651;28;20134;-78
2022/04/24 11:36:44;;;;;;;2.90;2.60;;;16.10;63.30;;;;;;4989470;28;20049;-79
2022/04/24 11:39:09;;;;;;;4.83;3.10;;;16.20;62.90;;;;;;4972880;28;20601;-78
2022/04/24 11:41:36;;;;;;;7.60;3.17;;;16.00;62.60;;;;;;4965271;28;20039;-78
2022/04/24 11:52:43;;;;;;;5.70;2.70;;;15.10;64.10;;;;;;5011627;28;20551;-78
2022/04/24 11:55:10;;;;;;;3.97;2.93;;;15.10;66.00;;;;;;5015182;28;20398;-78
2022/04/24 11:57:36;;;;;;;5.40;2.90;;;15.00;65.70;;;;;;4992234;28;20671;-78
2022/04/24 12:00:05;;;;;;;5.03;2.97;;;14.80;66.50;;;;;;5007452;28;20104;-78
2022/04/24 12:02:31;;;;;;;3.40;2.90;;;15.10;66.90;;;;;;5003977;28;20434;-77
2022/04/24 12:04:57;;;;;;;5.30;3.13;;;15.10;66.10;;;;;;4994258;28;20092;-78
2022/04/24 12:07:33;;;;;;;4.40;3.23;;;15.20;66.30;;;;;;4962973;28;20153;-78
2022/04/24 12:10:07;;;;;;;3.83;3.00;;;15.30;65.80;;;;;;5013244;28;20108;-78
2022/04/24 12:12:44;;;;;;;5.33;3.00;;;15.10;65.30;;;;;;5018085;28;20124;-78
2022/04/24 12:15:15;;;;;;;5.00;3.23;;;15.40;65.60;;;;;;4993363;28;20168;-78
2022/04/24 12:18:10;;;;;;;5.37;3.40;;;15.70;64.70;;;;;;4996442;28;20038;-78
2022/04/24 12:20:40;;;;;;;4.37;2.97;;;16.00;64.00;;;;;;4980099;28;20425;-79
2022/04/24 12:23:09;;;;;;;4.27;2.97;;;15.90;62.90;;;;;;4985759;28;20034;-78
2022/04/24 12:25:49;;;;;;;5.17;3.00;;;15.60;61.30;;;;;;5003335;28;20038;-78
2022/04/24 12:28:32;;;;;;;4.13;2.70;;;15.50;63.10;;;;;;5014886;28;20069;-78
2022/04/24 12:31:01;;;;;;;3.33;3.03;;;15.80;62.10;;;;;;5019335;28;20107;-79
2022/04/24 12:33:27;;;;;;;4.37;3.40;;;16.10;62.30;;;;;;5003275;28;20116;-79
2022/04/24 12:35:54;;;;;;;4.17;3.47;;;16.30;63.00;;;;;;5001778;28;20457;-78
2022/04/24 12:38:22;;;;;;;4.28;3.38;;;16.00;63.90;;;;;;5023290;28;20058;-78
2022/04/24 12:40:55;;;;;;;7.23;3.60;;;15.50;63.80;;;;;;5014949;28;20064;-78
2022/04/24 12:43:30;;;;;;;4.07;3.67;;;15.20;66.00;;;;;;5002873;28;20041;-78
2022/04/24 12:45:57;;;;;;;4.50;3.60;;;15.40;67.00;;;;;;5023937;28;20044;-78
2022/04/24 12:48:23;;;;;;;7.83;3.93;;;15.20;68.80;;;;;;5007531;28;20065;-78
2022/04/24 12:50:53;;;;;;;4.50;3.40;;;15.00;67.70;;;;;;5011835;28;20128;-78
2022/04/24 12:53:20;;;;;;;7.43;5.60;;;15.00;68.90;;;;;;5028062;28;20036;-78
2022/04/24 12:55:47;;;;;;;5.43;3.73;;;15.20;69.50;;;;;;5005335;28;20132;-79
2022/04/24 12:58:16;;;;;;;5.83;3.73;;;15.30;68.70;;;;;;4990072;28;20085;-79
2022/04/24 13:00:43;;;;;;;5.20;3.80;;;15.60;68.50;;;;;;5021231;28;20799;-79